This is the latest recevied weather packets stored in our database for station/object WA6GRA. If no packets are shown the sender has not sent any weather packets the latest 1 day(s).
| Time | Temp. | Humidity | Pressure | Rain* | Wind** | Luminosity | Snow |
|---|---|---|---|---|---|---|---|
| 1778003487 | 15° C | 73% | 1015.2 hPa | 0 mm | 1.79 m/s, 326° | 459 W/m² | - |
| 1778002886 | 15.56° C | 74% | 1015.3 hPa | 0 mm | 2.24 m/s, 340° | 353 W/m² | - |
| 1778002285 | 15° C | 75% | 1014.9 hPa | 0 mm | 1.79 m/s, 329° | 519 W/m² | - |
| 1778001680 | 15° C | 77% | 1015.1 hPa | 0 mm | 1.79 m/s, 312° | 413 W/m² | - |
| 1778001078 | 13.89° C | 80% | 1014.9 hPa | 0 mm | 2.24 m/s, 310° | 403 W/m² | - |
| 1778000477 | 13.89° C | 83% | 1015.1 hPa | 0 mm | 2.68 m/s, 338° | 272 W/m² | - |
| 1777999874 | 13.33° C | 85% | 1014.9 hPa | 0 mm | 1.34 m/s, 291° | 223 W/m² | - |
| 1777999273 | 13.33° C | 86% | 1014.9 hPa | 0 mm | 1.34 m/s, 295° | 170 W/m² | - |
| 1777998668 | 12.78° C | 85% | 1015 hPa | 0 mm | 2.24 m/s, 285° | 152 W/m² | - |
| 1777998063 | 12.78° C | 86% | 1014.9 hPa | 0 mm | 0.45 m/s, 294° | 116 W/m² | - |
| 1777997463 | 12.78° C | 87% | 1014.8 hPa | 0 mm | 1.34 m/s, 308° | 131 W/m² | - |
| 1777996864 | 12.78° C | 87% | 1014.6 hPa | 0 mm | 0.89 m/s, 328° | 118 W/m² | - |
| 1777996262 | 12.78° C | 87% | 1014.7 hPa | 0 mm | 0.89 m/s, 335° | 132 W/m² | - |
| 1777995660 | 12.78° C | 86% | 1014.6 hPa | 0 mm | 2.24 m/s, 316° | 158 W/m² | - |
| 1777995060 | 12.78° C | 88% | 1014.6 hPa | 0 mm | 2.24 m/s, 317° | 190 W/m² | - |
| 1777994458 | 12.78° C | 89% | 1014.5 hPa | 0 mm | 1.79 m/s, 286° | 123 W/m² | - |
| 1777993857 | 12.22° C | 89% | 1014.5 hPa | 0 mm | 1.34 m/s, 308° | 139 W/m² | - |
| 1777993255 | 12.22° C | 90% | 1014.4 hPa | 0 mm | 2.68 m/s, 301° | 125 W/m² | - |
| 1777992650 | 12.22° C | 90% | 1014.4 hPa | 0 mm | 2.24 m/s, 345° | 80 W/m² | - |
| 1777992050 | 12.22° C | 89% | 1014.1 hPa | 0 mm | 1.34 m/s, 295° | 91 W/m² | - |
| 1777991451 | 12.22° C | 88% | 1014 hPa | 0 mm | 2.24 m/s, 306° | 49 W/m² | - |
| 1777990850 | 12.22° C | 89% | 1013.9 hPa | 0 mm | 1.34 m/s, 312° | 39 W/m² | - |
| 1777990250 | 12.22° C | 89% | 1013.9 hPa | 0 mm | 1.34 m/s, 274° | 25 W/m² | - |
| 1777989650 | 12.22° C | 90% | 1013.8 hPa | 0 mm | 0.89 m/s, 320° | 19 W/m² | - |
| 1777989048 | 12.22° C | 89% | 1013.7 hPa | 0 mm | 2.24 m/s, 317° | 13 W/m² | - |
* Rain latest hour (hover to see other rain measurements)
** Current wind speed in m/s (hover to see current wind gust speed)